Terminal Aerodrome Forecast
Issued by NWS

Home | Current Version | Previous Version | Text Only | Print | Product List | Glossary On
Versions: 1 2 3 4 5 6 7 8 9 10 11 12 13 14 15 16 17 18 19 20 21 22
000
FTUS43 KMQT 191700
TAFSAW
TAF
KSAW 191736Z 1918/2018 17017G25KT P6SM FEW060 BKN150
     FM200200 18012KT 6SM -SHRA OVC050 WS010/20040KT
     FM200800 18010KT P6SM BKN025
     FM201100 20007KT 4SM BR SCT005 BKN035
     FM201400 23007KT P6SM SCT015
      AMD LTD TO CLD VIS AND WIND 2002/2010=

USA.gov is the U.S. government's official web portal to all federal, state and local government web resources and services.